sensor_id;sensor_type;location;lat;lon;timestamp;pressure;altitude;pressure_sealevel;temperature;humidity
60049;BME280;66154;45.544;6.756;2023-08-08T00:02:57;87383.97;;;12.19;47.55
60049;BME280;66154;45.544;6.756;2023-08-08T00:07:57;87371.22;;;12.17;51.24
60049;BME280;66154;45.544;6.756;2023-08-08T00:12:58;87384.91;;;12.12;50.24
60049;BME280;66154;45.544;6.756;2023-08-08T00:17:58;87380.78;;;12.11;49.94
60049;BME280;66154;45.544;6.756;2023-08-08T00:22:59;87381.22;;;12.10;50.56
60049;BME280;66154;45.544;6.756;2023-08-08T00:28:00;87377.50;;;12.07;49.83
60049;BME280;66154;45.544;6.756;2023-08-08T00:33:00;87369.72;;;12.04;50.40
60049;BME280;66154;45.544;6.756;2023-08-08T00:38:01;87366.75;;;12.02;51.39
60049;BME280;66154;45.544;6.756;2023-08-08T00:43:01;87357.81;;;11.99;50.97
60049;BME280;66154;45.544;6.756;2023-08-08T00:48:02;87354.53;;;11.95;51.66
60049;BME280;66154;45.544;6.756;2023-08-08T00:53:04;87349.66;;;11.94;49.93
60049;BME280;66154;45.544;6.756;2023-08-08T00:58:04;87348.94;;;11.93;50.29
60049;BME280;66154;45.544;6.756;2023-08-08T01:03:06;87341.88;;;11.90;50.62
60049;BME280;66154;45.544;6.756;2023-08-08T01:08:07;87341.53;;;11.88;50.64
60049;BME280;66154;45.544;6.756;2023-08-08T01:13:16;87340.06;;;11.87;50.73
60049;BME280;66154;45.544;6.756;2023-08-08T01:18:18;87337.44;;;11.87;50.80
60049;BME280;66154;45.544;6.756;2023-08-08T01:23:24;87331.00;;;11.88;50.70
60049;BME280;66154;45.544;6.756;2023-08-08T01:28:26;87339.34;;;11.86;49.82
60049;BME280;66154;45.544;6.756;2023-08-08T01:33:27;87345.78;;;11.85;49.98
60049;BME280;66154;45.544;6.756;2023-08-08T01:38:38;87339.00;;;11.84;51.15
60049;BME280;66154;45.544;6.756;2023-08-08T01:43:40;87332.69;;;11.82;51.05
60049;BME280;66154;45.544;6.756;2023-08-08T01:48:45;87329.75;;;11.80;51.14
60049;BME280;66154;45.544;6.756;2023-08-08T01:53:45;87327.50;;;11.78;51.23
60049;BME280;66154;45.544;6.756;2023-08-08T01:58:46;87313.31;;;11.76;51.38
60049;BME280;66154;45.544;6.756;2023-08-08T02:03:46;87308.84;;;11.73;52.62
60049;BME280;66154;45.544;6.756;2023-08-08T02:08:47;87296.13;;;11.71;51.70
60049;BME280;66154;45.544;6.756;2023-08-08T02:13:47;87291.38;;;11.66;51.85
60049;BME280;66154;45.544;6.756;2023-08-08T02:18:48;87296.69;;;11.63;51.14
60049;BME280;66154;45.544;6.756;2023-08-08T02:23:48;87301.25;;;11.62;51.42
60049;BME280;66154;45.544;6.756;2023-08-08T02:28:49;87298.59;;;11.62;51.68
60049;BME280;66154;45.544;6.756;2023-08-08T02:33:50;87303.88;;;11.62;50.64
60049;BME280;66154;45.544;6.756;2023-08-08T02:38:51;87306.56;;;11.59;51.76
60049;BME280;66154;45.544;6.756;2023-08-08T02:43:53;87304.38;;;11.57;50.48
60049;BME280;66154;45.544;6.756;2023-08-08T02:48:54;87301.00;;;11.57;51.71
60049;BME280;66154;45.544;6.756;2023-08-08T02:53:54;87306.78;;;11.52;51.29
60049;BME280;66154;45.544;6.756;2023-08-08T02:58:55;87309.19;;;11.46;51.69
60049;BME280;66154;45.544;6.756;2023-08-08T03:03:55;87312.03;;;11.39;51.16
60049;BME280;66154;45.544;6.756;2023-08-08T03:08:56;87308.31;;;11.37;51.39
60049;BME280;66154;45.544;6.756;2023-08-08T03:13:56;87305.38;;;11.35;51.98
60049;BME280;66154;45.544;6.756;2023-08-08T03:18:57;87304.72;;;11.31;51.23
60049;BME280;66154;45.544;6.756;2023-08-08T03:23:58;87310.50;;;11.26;51.76
60049;BME280;66154;45.544;6.756;2023-08-08T03:28:59;87321.41;;;11.24;51.28
60049;BME280;66154;45.544;6.756;2023-08-08T03:33:59;87310.28;;;11.20;50.92
60049;BME280;66154;45.544;6.756;2023-08-08T03:39:00;87307.31;;;11.18;52.06
60049;BME280;66154;45.544;6.756;2023-08-08T03:44:01;87312.97;;;11.17;50.63
60049;BME280;66154;45.544;6.756;2023-08-08T03:49:03;87311.19;;;11.14;50.62
60049;BME280;66154;45.544;6.756;2023-08-08T03:54:03;87310.44;;;11.13;49.67
60049;BME280;66154;45.544;6.756;2023-08-08T03:59:04;87319.72;;;11.18;50.37
60049;BME280;66154;45.544;6.756;2023-08-08T04:04:04;87315.94;;;11.19;50.94
60049;BME280;66154;45.544;6.756;2023-08-08T04:09:05;87321.59;;;11.17;51.62
60049;BME280;66154;45.544;6.756;2023-08-08T04:14:07;87316.88;;;11.12;50.85
60049;BME280;66154;45.544;6.756;2023-08-08T04:19:07;87325.91;;;11.11;50.72
60049;BME280;66154;45.544;6.756;2023-08-08T04:24:08;87326.75;;;11.08;50.87
60049;BME280;66154;45.544;6.756;2023-08-08T04:29:09;87326.84;;;11.05;52.55
60049;BME280;66154;45.544;6.756;2023-08-08T04:34:09;87324.69;;;10.99;51.64
60049;BME280;66154;45.544;6.756;2023-08-08T04:39:10;87320.75;;;10.91;50.74
60049;BME280;66154;45.544;6.756;2023-08-08T04:44:11;87322.44;;;10.85;51.38
60049;BME280;66154;45.544;6.756;2023-08-08T04:49:11;87322.59;;;10.78;51.52
60049;BME280;66154;45.544;6.756;2023-08-08T04:54:12;87327.28;;;10.71;51.49
60049;BME280;66154;45.544;6.756;2023-08-08T04:59:12;87333.03;;;10.66;51.12
60049;BME280;66154;45.544;6.756;2023-08-08T05:04:13;87329.34;;;10.63;52.06
60049;BME280;66154;45.544;6.756;2023-08-08T05:09:13;87327.88;;;10.62;52.03
60049;BME280;66154;45.544;6.756;2023-08-08T05:14:14;87330.16;;;10.60;51.90
60049;BME280;66154;45.544;6.756;2023-08-08T05:19:14;87329.84;;;10.58;51.82
60049;BME280;66154;45.544;6.756;2023-08-08T05:24:15;87335.09;;;10.58;52.03
60049;BME280;66154;45.544;6.756;2023-08-08T05:29:15;87322.75;;;10.55;52.32
60049;BME280;66154;45.544;6.756;2023-08-08T05:34:16;87317.59;;;10.52;51.50
60049;BME280;66154;45.544;6.756;2023-08-08T05:39:16;87319.81;;;10.53;52.35
60049;BME280;66154;45.544;6.756;2023-08-08T05:44:17;87325.31;;;10.59;50.13
60049;BME280;66154;45.544;6.756;2023-08-08T05:49:17;87328.44;;;10.70;51.57
60049;BME280;66154;45.544;6.756;2023-08-08T05:54:18;87321.78;;;10.81;50.02
60049;BME280;66154;45.544;6.756;2023-08-08T05:59:18;87323.72;;;10.93;51.42
60049;BME280;66154;45.544;6.756;2023-08-08T06:04:19;87322.63;;;11.07;51.22
60049;BME280;66154;45.544;6.756;2023-08-08T06:09:19;87320.78;;;11.20;50.99
60049;BME280;66154;45.544;6.756;2023-08-08T06:14:20;87323.03;;;11.34;50.44
60049;BME280;66154;45.544;6.756;2023-08-08T06:19:20;87317.72;;;11.50;50.05
60049;BME280;66154;45.544;6.756;2023-08-08T06:24:21;87318.91;;;11.62;49.01
60049;BME280;66154;45.544;6.756;2023-08-08T06:29:21;87310.41;;;11.70;50.01
60049;BME280;66154;45.544;6.756;2023-08-08T06:34:22;87315.41;;;11.81;49.92
60049;BME280;66154;45.544;6.756;2023-08-08T06:39:22;87320.06;;;11.90;50.67
60049;BME280;66154;45.544;6.756;2023-08-08T06:44:23;87318.47;;;11.92;49.46
60049;BME280;66154;45.544;6.756;2023-08-08T06:49:23;87318.56;;;11.88;49.58
60049;BME280;66154;45.544;6.756;2023-08-08T06:54:24;87325.72;;;11.88;49.75
60049;BME280;66154;45.544;6.756;2023-08-08T06:59:25;87325.72;;;11.88;50.73
60049;BME280;66154;45.544;6.756;2023-08-08T07:04:26;87322.28;;;11.91;50.24
60049;BME280;66154;45.544;6.756;2023-08-08T07:09:27;87330.41;;;11.97;50.25
60049;BME280;66154;45.544;6.756;2023-08-08T07:14:27;87323.88;;;12.01;50.39
60049;BME280;66154;45.544;6.756;2023-08-08T07:19:28;87320.59;;;12.10;49.66
60049;BME280;66154;45.544;6.756;2023-08-08T07:24:28;87313.53;;;12.19;49.30
60049;BME280;66154;45.544;6.756;2023-08-08T07:29:29;87320.41;;;12.29;48.83
60049;BME280;66154;45.544;6.756;2023-08-08T07:34:30;87312.91;;;12.40;49.51
60049;BME280;66154;45.544;6.756;2023-08-08T07:39:30;87305.13;;;12.49;49.82
60049;BME280;66154;45.544;6.756;2023-08-08T07:44:31;87309.75;;;12.58;49.19
60049;BME280;66154;45.544;6.756;2023-08-08T07:49:34;87304.47;;;12.70;48.54
60049;BME280;66154;45.544;6.756;2023-08-08T07:54:35;87301.78;;;12.83;47.30
60049;BME280;66154;45.544;6.756;2023-08-08T07:59:35;87318.66;;;12.98;47.94
60049;BME280;66154;45.544;6.756;2023-08-08T08:04:36;87317.47;;;13.12;48.29
60049;BME280;66154;45.544;6.756;2023-08-08T08:09:36;87313.94;;;13.27;48.58
60049;BME280;66154;45.544;6.756;2023-08-08T08:14:37;87317.25;;;13.53;47.52
60049;BME280;66154;45.544;6.756;2023-08-08T08:19:38;87316.81;;;13.76;47.48
60049;BME280;66154;45.544;6.756;2023-08-08T08:24:38;87307.22;;;13.91;47.46
60049;BME280;66154;45.544;6.756;2023-08-08T08:29:39;87307.44;;;14.06;47.99
60049;BME280;66154;45.544;6.756;2023-08-08T08:34:40;87309.53;;;14.11;47.21
60049;BME280;66154;45.544;6.756;2023-08-08T08:39:40;87311.75;;;14.12;48.18
60049;BME280;66154;45.544;6.756;2023-08-08T08:44:41;87327.09;;;14.26;48.10
60049;BME280;66154;45.544;6.756;2023-08-08T08:49:43;87337.44;;;14.33;47.99
60049;BME280;66154;45.544;6.756;2023-08-08T08:54:45;87346.72;;;14.38;50.95
60049;BME280;66154;45.544;6.756;2023-08-08T08:59:46;87351.88;;;14.41;47.89
60049;BME280;66154;45.544;6.756;2023-08-08T09:04:46;87346.63;;;14.50;47.90
60049;BME280;66154;45.544;6.756;2023-08-08T09:09:47;87349.91;;;14.64;47.85
60049;BME280;66154;45.544;6.756;2023-08-08T09:14:54;87354.22;;;14.79;47.24
60049;BME280;66154;45.544;6.756;2023-08-08T09:19:55;87350.00;;;14.91;46.75
60049;BME280;66154;45.544;6.756;2023-08-08T09:24:55;87347.25;;;15.03;47.76
60049;BME280;66154;45.544;6.756;2023-08-08T09:29:56;87342.59;;;15.16;47.75
60049;BME280;66154;45.544;6.756;2023-08-08T09:34:57;87347.47;;;15.27;47.55
60049;BME280;66154;45.544;6.756;2023-08-08T09:39:59;87340.13;;;15.31;47.06
60049;BME280;66154;45.544;6.756;2023-08-08T09:45:00;87348.41;;;15.42;47.96
60049;BME280;66154;45.544;6.756;2023-08-08T09:50:02;87344.56;;;15.43;47.56
60049;BME280;66154;45.544;6.756;2023-08-08T09:55:05;87334.56;;;15.47;48.45
60049;BME280;66154;45.544;6.756;2023-08-08T10:00:07;87326.19;;;15.67;47.36
60049;BME280;66154;45.544;6.756;2023-08-08T10:05:13;87332.06;;;15.80;47.44
60049;BME280;66154;45.544;6.756;2023-08-08T10:10:15;87328.41;;;15.77;48.39
60049;BME280;66154;45.544;6.756;2023-08-08T10:15:16;87330.31;;;15.86;46.95
60049;BME280;66154;45.544;6.756;2023-08-08T10:20:18;87327.66;;;16.04;47.58
60049;BME280;66154;45.544;6.756;2023-08-08T10:30:20;87318.34;;;16.17;47.40
60049;BME280;66154;45.544;6.756;2023-08-08T10:35:21;87313.59;;;16.30;46.72
60049;BME280;66154;45.544;6.756;2023-08-08T10:40:32;87309.13;;;16.55;46.89
60049;BME280;66154;45.544;6.756;2023-08-08T10:45:35;87309.41;;;16.66;46.80
60049;BME280;66154;45.544;6.756;2023-08-08T10:50:40;87310.38;;;16.77;46.43
60049;BME280;66154;45.544;6.756;2023-08-08T10:55:41;87302.38;;;16.86;46.30
60049;BME280;66154;45.544;6.756;2023-08-08T11:00:43;87318.09;;;16.99;46.37
60049;BME280;66154;45.544;6.756;2023-08-08T11:05:46;87314.50;;;17.11;46.30
60049;BME280;66154;45.544;6.756;2023-08-08T11:10:51;87311.00;;;17.28;46.39
60049;BME280;66154;45.544;6.756;2023-08-08T11:15:52;87306.75;;;17.46;46.21
60049;BME280;66154;45.544;6.756;2023-08-08T11:20:53;87304.53;;;17.53;45.83
60049;BME280;66154;45.544;6.756;2023-08-08T11:25:57;87306.69;;;17.64;45.73
60049;BME280;66154;45.544;6.756;2023-08-08T11:30:57;87298.16;;;17.74;45.30
60049;BME280;66154;45.544;6.756;2023-08-08T11:35:59;87281.69;;;17.85;45.77
60049;BME280;66154;45.544;6.756;2023-08-08T11:41:00;87290.44;;;18.00;46.08
60049;BME280;66154;45.544;6.756;2023-08-08T11:46:00;87293.75;;;18.09;46.73
60049;BME280;66154;45.544;6.756;2023-08-08T11:51:04;87295.31;;;18.16;46.68
60049;BME280;66154;45.544;6.756;2023-08-08T11:56:04;87297.25;;;18.15;46.25
60049;BME280;66154;45.544;6.756;2023-08-08T12:01:06;87292.47;;;18.20;46.49
60049;BME280;66154;45.544;6.756;2023-08-08T12:06:14;87287.34;;;18.16;46.25
60049;BME280;66154;45.544;6.756;2023-08-08T12:11:15;87301.34;;;18.16;46.47
60049;BME280;66154;45.544;6.756;2023-08-08T12:16:16;87292.09;;;18.27;45.81
60049;BME280;66154;45.544;6.756;2023-08-08T12:21:16;87282.75;;;18.31;46.47
60049;BME280;66154;45.544;6.756;2023-08-08T12:26:17;87278.72;;;18.36;45.80
60049;BME280;66154;45.544;6.756;2023-08-08T12:31:17;87281.13;;;18.48;45.86
60049;BME280;66154;45.544;6.756;2023-08-08T12:36:18;87281.38;;;18.65;42.38
60049;BME280;66154;45.544;6.756;2023-08-08T12:41:18;87279.34;;;18.89;45.17
60049;BME280;66154;45.544;6.756;2023-08-08T12:46:19;87268.00;;;19.09;44.71
60049;BME280;66154;45.544;6.756;2023-08-08T12:51:20;87272.53;;;19.37;45.55
60049;BME280;66154;45.544;6.756;2023-08-08T12:56:20;87269.91;;;19.43;40.84
60049;BME280;66154;45.544;6.756;2023-08-08T13:01:21;87269.31;;;19.33;45.87
60049;BME280;66154;45.544;6.756;2023-08-08T13:06:22;87262.06;;;19.34;45.91
60049;BME280;66154;45.544;6.756;2023-08-08T13:11:22;87256.06;;;19.39;45.12
60049;BME280;66154;45.544;6.756;2023-08-08T13:16:23;87244.66;;;19.38;45.60
60049;BME280;66154;45.544;6.756;2023-08-08T13:21:24;87255.59;;;19.40;46.37
60049;BME280;66154;45.544;6.756;2023-08-08T13:26:25;87257.47;;;19.74;47.01
60049;BME280;66154;45.544;6.756;2023-08-08T13:31:26;87263.44;;;20.61;44.08
60049;BME280;66154;45.544;6.756;2023-08-08T13:36:26;87267.84;;;20.95;45.71
60049;BME280;66154;45.544;6.756;2023-08-08T13:41:27;87270.16;;;20.82;43.85
60049;BME280;66154;45.544;6.756;2023-08-08T13:46:27;87257.44;;;20.71;44.13
60049;BME280;66154;45.544;6.756;2023-08-08T13:51:28;87249.13;;;21.26;45.28
60049;BME280;66154;45.544;6.756;2023-08-08T13:56:28;87258.66;;;22.73;46.64
60049;BME280;66154;45.544;6.756;2023-08-08T14:01:29;87247.72;;;22.98;44.75
60049;BME280;66154;45.544;6.756;2023-08-08T14:06:29;87254.91;;;22.37;42.30
60049;BME280;66154;45.544;6.756;2023-08-08T14:11:31;87248.25;;;21.99;42.94
60049;BME280;66154;45.544;6.756;2023-08-08T14:16:31;87245.94;;;21.76;43.32
60049;BME280;66154;45.544;6.756;2023-08-08T14:21:32;87243.41;;;22.03;45.42
60049;BME280;66154;45.544;6.756;2023-08-08T14:26:33;87248.44;;;22.88;45.85
60049;BME280;66154;45.544;6.756;2023-08-08T14:31:33;87242.72;;;23.80;40.66
60049;BME280;66154;45.544;6.756;2023-08-08T14:36:34;87245.81;;;24.11;40.00
60049;BME280;66154;45.544;6.756;2023-08-08T14:41:35;87256.94;;;23.64;45.20
60049;BME280;66154;45.544;6.756;2023-08-08T14:46:35;87256.94;;;23.47;44.58
60049;BME280;66154;45.544;6.756;2023-08-08T14:51:36;87250.66;;;24.18;43.04
60049;BME280;66154;45.544;6.756;2023-08-08T14:56:36;87245.31;;;24.59;43.85
60049;BME280;66154;45.544;6.756;2023-08-08T15:01:37;87249.16;;;24.75;45.29
60049;BME280;66154;45.544;6.756;2023-08-08T15:06:37;87257.69;;;25.14;39.46
60049;BME280;66154;45.544;6.756;2023-08-08T15:11:38;87260.31;;;25.55;40.20
60049;BME280;66154;45.544;6.756;2023-08-08T15:16:39;87250.25;;;26.46;42.42
60049;BME280;66154;45.544;6.756;2023-08-08T15:21:39;87261.84;;;27.34;45.13
60049;BME280;66154;45.544;6.756;2023-08-08T15:26:40;87273.72;;;28.02;46.03
60049;BME280;66154;45.544;6.756;2023-08-08T15:31:40;87273.06;;;28.54;41.52
60049;BME280;66154;45.544;6.756;2023-08-08T15:36:41;87280.06;;;28.83;42.00
60049;BME280;66154;45.544;6.756;2023-08-08T15:41:41;87263.63;;;29.28;38.83
60049;BME280;66154;45.544;6.756;2023-08-08T15:46:42;87268.44;;;29.22;40.92
60049;BME280;66154;45.544;6.756;2023-08-08T15:51:42;87277.91;;;29.49;23.71
60049;BME280;66154;45.544;6.756;2023-08-08T15:56:43;87276.16;;;29.05;35.43
60049;BME280;66154;45.544;6.756;2023-08-08T16:01:43;87266.78;;;28.46;39.17
60049;BME280;66154;45.544;6.756;2023-08-08T16:06:44;87266.88;;;28.01;37.42
60049;BME280;66154;45.544;6.756;2023-08-08T16:11:45;87264.72;;;27.68;37.19
60049;BME280;66154;45.544;6.756;2023-08-08T16:16:45;87257.44;;;27.50;36.18
60049;BME280;66154;45.544;6.756;2023-08-08T16:21:46;87242.75;;;27.27;26.35
60049;BME280;66154;45.544;6.756;2023-08-08T16:26:46;87248.25;;;26.89;36.87
60049;BME280;66154;45.544;6.756;2023-08-08T16:31:47;87242.09;;;26.33;37.97
60049;BME280;66154;45.544;6.756;2023-08-08T16:36:47;87238.09;;;25.97;39.42
60049;BME280;66154;45.544;6.756;2023-08-08T16:41:48;87249.59;;;25.97;39.92
60049;BME280;66154;45.544;6.756;2023-08-08T16:46:49;87252.63;;;25.88;31.62
60049;BME280;66154;45.544;6.756;2023-08-08T16:51:49;87251.69;;;25.86;37.64
60049;BME280;66154;45.544;6.756;2023-08-08T16:56:49;87248.31;;;25.80;40.94
60049;BME280;66154;45.544;6.756;2023-08-08T17:01:50;87265.00;;;25.73;35.16
60049;BME280;66154;45.544;6.756;2023-08-08T17:06:50;87269.75;;;25.91;40.67
60049;BME280;66154;45.544;6.756;2023-08-08T17:11:52;87267.16;;;26.04;39.17
60049;BME280;66154;45.544;6.756;2023-08-08T17:16:52;87269.56;;;25.83;37.27
60049;BME280;66154;45.544;6.756;2023-08-08T17:21:53;87267.03;;;25.37;38.43
60049;BME280;66154;45.544;6.756;2023-08-08T17:26:53;87270.81;;;24.88;33.05
60049;BME280;66154;45.544;6.756;2023-08-08T17:31:54;87274.44;;;24.50;35.88
60049;BME280;66154;45.544;6.756;2023-08-08T17:36:55;87269.66;;;24.26;35.01
60049;BME280;66154;45.544;6.756;2023-08-08T17:41:55;87279.75;;;23.98;38.14
60049;BME280;66154;45.544;6.756;2023-08-08T17:46:56;87294.72;;;23.71;33.20
60049;BME280;66154;45.544;6.756;2023-08-08T17:51:56;87281.09;;;23.41;35.84
60049;BME280;66154;45.544;6.756;2023-08-08T17:56:57;87281.09;;;23.08;39.29
60049;BME280;66154;45.544;6.756;2023-08-08T18:01:57;87287.19;;;22.81;38.15
60049;BME280;66154;45.544;6.756;2023-08-08T18:06:59;87294.41;;;22.53;35.95
60049;BME280;66154;45.544;6.756;2023-08-08T18:11:59;87293.88;;;22.27;36.13
60049;BME280;66154;45.544;6.756;2023-08-08T18:17:00;87284.50;;;22.00;37.08
60049;BME280;66154;45.544;6.756;2023-08-08T18:22:00;87281.44;;;21.70;37.32
60049;BME280;66154;45.544;6.756;2023-08-08T18:27:02;87281.78;;;21.41;35.27
60049;BME280;66154;45.544;6.756;2023-08-08T18:32:03;87305.41;;;21.12;36.76
60049;BME280;66154;45.544;6.756;2023-08-08T18:37:04;87313.19;;;20.84;37.98
60049;BME280;66154;45.544;6.756;2023-08-08T18:42:05;87309.78;;;20.58;36.56
60049;BME280;66154;45.544;6.756;2023-08-08T18:47:05;87319.75;;;20.32;38.19
60049;BME280;66154;45.544;6.756;2023-08-08T18:52:06;87330.59;;;20.08;37.78
60049;BME280;66154;45.544;6.756;2023-08-08T18:57:06;87339.28;;;19.83;36.91
60049;BME280;66154;45.544;6.756;2023-08-08T19:02:07;87347.47;;;19.59;40.43
60049;BME280;66154;45.544;6.756;2023-08-08T19:07:07;87356.69;;;19.44;37.68
60049;BME280;66154;45.544;6.756;2023-08-08T19:12:08;87355.16;;;19.23;37.73
60049;BME280;66154;45.544;6.756;2023-08-08T19:17:09;87356.03;;;18.99;40.64
60049;BME280;66154;45.544;6.756;2023-08-08T19:22:09;87356.44;;;18.78;38.77
60049;BME280;66154;45.544;6.756;2023-08-08T19:27:10;87365.25;;;18.55;38.08
60049;BME280;66154;45.544;6.756;2023-08-08T19:32:10;87368.94;;;18.34;40.19
60049;BME280;66154;45.544;6.756;2023-08-08T19:37:11;87375.59;;;18.14;39.89
60049;BME280;66154;45.544;6.756;2023-08-08T19:42:11;87381.81;;;17.97;40.48
60049;BME280;66154;45.544;6.756;2023-08-08T19:47:12;87376.41;;;17.82;39.61
60049;BME280;66154;45.544;6.756;2023-08-08T19:52:12;87381.81;;;17.73;41.92
60049;BME280;66154;45.544;6.756;2023-08-08T19:57:13;87382.41;;;17.68;39.96
60049;BME280;66154;45.544;6.756;2023-08-08T20:02:14;87386.63;;;17.60;40.11
60049;BME280;66154;45.544;6.756;2023-08-08T20:07:14;87390.78;;;17.52;42.23
60049;BME280;66154;45.544;6.756;2023-08-08T20:12:15;87386.22;;;17.44;40.68
60049;BME280;66154;45.544;6.756;2023-08-08T20:17:16;87392.34;;;17.35;41.17
60049;BME280;66154;45.544;6.756;2023-08-08T20:22:16;87379.66;;;17.30;42.04
60049;BME280;66154;45.544;6.756;2023-08-08T20:27:17;87395.00;;;17.26;41.58
60049;BME280;66154;45.544;6.756;2023-08-08T20:32:17;87410.66;;;17.24;40.00
60049;BME280;66154;45.544;6.756;2023-08-08T20:37:18;87410.38;;;17.22;41.90
60049;BME280;66154;45.544;6.756;2023-08-08T20:42:19;87405.22;;;17.18;42.35
60049;BME280;66154;45.544;6.756;2023-08-08T20:47:19;87413.53;;;17.11;41.56
60049;BME280;66154;45.544;6.756;2023-08-08T20:52:20;87414.88;;;17.07;41.79
60049;BME280;66154;45.544;6.756;2023-08-08T20:57:20;87426.69;;;17.06;41.83
60049;BME280;66154;45.544;6.756;2023-08-08T21:02:21;87431.25;;;17.05;41.25
60049;BME280;66154;45.544;6.756;2023-08-08T21:07:22;87442.06;;;17.02;41.09
60049;BME280;66154;45.544;6.756;2023-08-08T21:12:22;87442.63;;;16.97;42.22
60049;BME280;66154;45.544;6.756;2023-08-08T21:17:23;87445.16;;;16.91;42.59
60049;BME280;66154;45.544;6.756;2023-08-08T21:22:23;87436.47;;;16.82;42.81
60049;BME280;66154;45.544;6.756;2023-08-08T21:27:24;87432.09;;;16.70;42.67
60049;BME280;66154;45.544;6.756;2023-08-08T21:32:24;87440.81;;;16.61;42.98
60049;BME280;66154;45.544;6.756;2023-08-08T21:37:25;87447.72;;;16.59;42.85
60049;BME280;66154;45.544;6.756;2023-08-08T21:42:25;87437.09;;;16.59;42.67
60049;BME280;66154;45.544;6.756;2023-08-08T21:47:26;87433.88;;;16.55;42.82
60049;BME280;66154;45.544;6.756;2023-08-08T21:52:26;87432.69;;;16.47;42.87
60049;BME280;66154;45.544;6.756;2023-08-08T21:57:27;87437.13;;;16.41;43.40
60049;BME280;66154;45.544;6.756;2023-08-08T22:02:27;87442.28;;;16.35;43.39
60049;BME280;66154;45.544;6.756;2023-08-08T22:07:28;87458.03;;;16.29;43.58
60049;BME280;66154;45.544;6.756;2023-08-08T22:12:28;87454.34;;;16.18;43.44
60049;BME280;66154;45.544;6.756;2023-08-08T22:17:29;87464.81;;;16.12;43.78
60049;BME280;66154;45.544;6.756;2023-08-08T22:22:29;87460.09;;;16.07;43.65
60049;BME280;66154;45.544;6.756;2023-08-08T22:27:31;87453.59;;;15.99;43.65
60049;BME280;66154;45.544;6.756;2023-08-08T22:32:32;87444.59;;;15.97;43.69
60049;BME280;66154;45.544;6.756;2023-08-08T22:37:32;87441.25;;;15.96;43.89
60049;BME280;66154;45.544;6.756;2023-08-08T22:42:33;87439.75;;;15.95;44.03
60049;BME280;66154;45.544;6.756;2023-08-08T22:47:34;87435.03;;;15.90;44.21
60049;BME280;66154;45.544;6.756;2023-08-08T22:52:35;87443.56;;;15.85;43.91
60049;BME280;66154;45.544;6.756;2023-08-08T22:57:36;87448.00;;;15.79;43.95
60049;BME280;66154;45.544;6.756;2023-08-08T23:02:36;87419.25;;;15.69;44.46
60049;BME280;66154;45.544;6.756;2023-08-08T23:07:38;87407.91;;;15.59;43.25
60049;BME280;66154;45.544;6.756;2023-08-08T23:12:38;87389.63;;;15.52;43.08
60049;BME280;66154;45.544;6.756;2023-08-08T23:17:39;87402.84;;;15.43;44.10
60049;BME280;66154;45.544;6.756;2023-08-08T23:22:39;87413.72;;;15.36;44.46
60049;BME280;66154;45.544;6.756;2023-08-08T23:27:40;87417.50;;;15.26;43.68
60049;BME280;66154;45.544;6.756;2023-08-08T23:32:40;87426.59;;;15.16;43.64
60049;BME280;66154;45.544;6.756;2023-08-08T23:37:41;87424.53;;;15.11;44.52
60049;BME280;66154;45.544;6.756;2023-08-08T23:42:41;87438.03;;;15.04;44.66
60049;BME280;66154;45.544;6.756;2023-08-08T23:47:42;87431.22;;;14.94;44.95
60049;BME280;66154;45.544;6.756;2023-08-08T23:52:42;87427.34;;;14.86;45.08
60049;BME280;66154;45.544;6.756;2023-08-08T23:57:43;87424.97;;;14.79;45.23
